Flight Track Log - Related Links

Times and Time Zones

All times are in EDT time to prevent confusion due to time zone crossing. See the SWA489 flight status page for this flight to view local times or setup timezone preferences in your user account.

Time Position Orientation Groundspeed Altitude Reporting Facility
EDT Latitude Longitude Course Direction KTS MPH feet Rate Location/Type
Thu 07:54:46 PM 39.8667 -104.5667 218° Southwest 203 234 7,700  Level Denver TRACON
Thu 07:55:40 PM 39.8500 -104.4833 105° East 277 319 9,000 1,643 Climbing Denver TRACON
Thu 07:56:10 PM 39.8247 -104.4375 126° Southeast 284 327 10,000 1,304 Climbing Denver Center
Thu 07:57:12 PM 39.7536 -104.3708 144° Southeast 335 386 11,000 1,839 Climbing Denver Center
Thu 07:58:14 PM 39.6606 -104.3900 189° South 350 403 13,800 3,000 Climbing Denver Center
Thu 07:59:16 PM 39.5697 -104.4511 207° Southwest 348 400 17,200 2,903 Climbing Denver Center
Thu 08:00:00 PM 39.4022 -104.5811 218° Southwest  Level FlightAware Approximate
Thu 08:00:18 PM 39.4847 -104.5153 210° Southwest 353 406 19,800  Level Denver Center
Thu 08:01:20 PM 39.4022 -104.6028 219° Southwest 366 421 22,100 2,081 Climbing Denver Center
Thu 08:02:22 PM 39.3394 -104.7139 234° Southwest 386 444 24,100 1,887 Climbing Denver Center
Thu 08:03:24 PM 39.2789 -104.8219 234° Southwest 396 456 26,000 1,839 Climbing Denver Center
Thu 08:04:26 PM 39.2119 -104.9419 234° Southwest 406 467 27,900 1,824 Climbing Denver Center
Thu 08:05:29 PM 39.1169 -105.0775 228° Southwest 426 490 29,800 1,680 Climbing Denver Center
Thu 08:06:31 PM 39.0061 -105.1472 206° Southwest 440 506 31,400 1,500 Climbing Denver Center
Thu 08:07:33 PM 38.8942 -105.2206 207° Southwest 449 517 32,900 1,548 Climbing Denver Center
Thu 08:08:35 PM 38.7794 -105.2925 206° Southwest 457 526 34,600 1,597 Climbing Denver Center
Thu 08:09:37 PM 38.6678 -105.3642 207° Southwest 453 521 36,200 1,452 Climbing Denver Center
Thu 08:10:39 PM 38.5558 -105.4353 206° Southwest 450 518 37,600 871 Climbing Denver Center
Thu 08:11:41 PM 38.4222 -105.5200 206° Southwest 449 517 38,000 194 Climbing Denver Center
Thu 08:12:43 PM 38.3069 -105.5917 206° Southwest 447 514 38,000  Level Denver Center
Thu 08:13:45 PM 38.2000 -105.6597 207° Southwest 449 517 38,000  Level Denver Center
Thu 08:14:47 PM 38.0758 -105.7375 206° Southwest 446 513 38,000  Level Denver Center
Thu 08:15:49 PM 37.9786 -105.8214 214° Southwest 444 511 38,000  Level Denver Center
Thu 08:16:51 PM 37.8783 -105.9478 225° Southwest 453 521 38,000  Level Denver Center
Thu 08:17:53 PM 37.7933 -106.0564 225° Southwest 455 524 38,000  Level Denver Center
Thu 08:18:55 PM 37.6919 -106.1836 225° Southwest 458 527 38,000  Level Denver Center
Thu 08:19:57 PM 37.6069 -106.2933 226° Southwest 457 526 38,000  Level Denver Center
Thu 08:21:11 PM 37.5061 -106.4189 225° Southwest 457 526 38,000  Level Denver Center
Thu 08:22:14 PM 37.4053 -106.5450 225° Southwest 457 526 38,000  Level Denver Center
Thu 08:23:16 PM 37.3042 -106.6711 225° Southwest 456 525 38,000  Level Denver Center
Thu 08:24:18 PM 37.2175 -106.7783 225° Southwest 455 524 38,000  Level Denver Center
Thu 08:25:20 PM 37.1164 -106.9047 225° Southwest 459 528 38,000  Level Denver Center
Thu 08:26:22 PM 37.0289 -107.0133 225° Southwest 460 529 38,000  Level Denver Center
Thu 08:27:24 PM 36.9261 -107.1392 224° Southwest 462 532 38,000  Level Denver Center
Thu 08:28:26 PM 36.8381 -107.2475 225° Southwest 464 534 38,000  Level Denver Center
Thu 08:29:28 PM 36.7364 -107.3714 224° Southwest 457 526 38,000  Level Denver Center
Thu 08:30:30 PM 36.6506 -107.4769 225° Southwest 451 519 38,000  Level Denver Center
Thu 08:31:32 PM 36.5633 -107.5817 224° Southwest 453 521 38,000  Level Denver Center
Thu 08:32:34 PM 36.4628 -107.7047 225° Southwest 453 521 38,000  Level Denver Center
Thu 08:33:36 PM 36.3769 -107.8158 226° Southwest 460 529 38,000  Level Denver Center
Thu 08:34:49 PM 36.2575 -107.9656 225° Southwest 472 543 38,000  Level Albuquerque Center
Thu 08:35:51 PM 36.1675 -108.0778 225° Southwest 475 547 38,000  Level Albuquerque Center
Thu 08:36:53 PM 36.0642 -108.2081 226° Southwest 474 545 38,000  Level Albuquerque Center
Thu 08:37:55 PM 35.9750 -108.3192 225° Southwest 473 544 38,000 -49 Level Albuquerque Center
Thu 08:38:56 PM 35.8703 -108.4489 225° Southwest 474 545 37,900 -488 Descending Albuquerque Center
Thu 08:39:58 PM 35.7803 -108.5592 225° Southwest 473 544 37,000 -823 Descending Albuquerque Center
Thu 08:41:00 PM 35.6914 -108.6692 225° Southwest 471 542 36,200 -484 Descending Albuquerque Center
Thu 08:42:02 PM 35.5878 -108.7972 225° Southwest 469 540 36,000 -68 Descending Albuquerque Center
Thu 08:43:56 PM 35.4106 -109.0131 225° Southwest 465 535 36,000  Level Denver Center
Thu 08:45:07 PM 35.3056 -109.1397 225° Southwest 472 543 36,000  Level Albuquerque Center
Thu 08:46:09 PM 35.2161 -109.2506 225° Southwest 476 548 36,000  Level Albuquerque Center
Thu 08:47:10 PM 35.1106 -109.3786 225° Southwest 478 550 36,000  Level Albuquerque Center
Thu 08:49:14 PM 34.9108 -109.6119 224° Southwest 478 550 36,000  Level Albuquerque Center
Thu 08:50:16 PM 34.8183 -109.7247 225° Southwest 486 559 36,000  Level Albuquerque Center
Thu 08:51:18 PM 34.7125 -109.8547 225° Southwest 485 558 36,000  Level Albuquerque Center
Thu 08:52:19 PM 34.6564 -110.0008 245° Southwest 492 566 36,000 -439 Level Albuquerque Center
Thu 08:53:21 PM 34.6039 -110.1481 247° West 497 572 35,100 -1,984 Descending Albuquerque Center
Thu 08:54:23 PM 34.5419 -110.3147 246° West 490 564 31,900 -2,565 Descending Albuquerque Center
Thu 08:55:25 PM 34.4839 -110.4661 245° Southwest 482 555 29,800 -2,081 Descending Albuquerque Center
Thu 08:56:27 PM 34.4317 -110.6072 246° West 468 539 27,600 -2,129 Descending Albuquerque Center
Thu 08:57:29 PM 34.3764 -110.7381 243° Southwest 445 512 25,400 -2,098 Descending Albuquerque Center
Thu 08:58:30 PM 34.3097 -110.8531 235° Southwest 425 489 23,300 -2,049 Descending Albuquerque Center
Thu 08:59:32 PM 34.2319 -110.9542 227° Southwest 412 474 21,200 -1,984 Descending Albuquerque Center
Thu 09:00:34 PM 34.1556 -111.0519 227° Southwest 404 465 19,200 -2,129 Descending Albuquerque Center
Thu 09:01:36 PM 34.0692 -111.1625 227° Southwest 386 444 16,800 -2,081 Descending Albuquerque Center
Thu 09:02:38 PM 34.0011 -111.2514 227° Southwest 368 423 14,900 -1,854 Descending Albuquerque Center
Thu 09:03:39 PM 33.9342 -111.3369 227° Southwest 353 406 13,000 -1,463 Descending Albuquerque Center
Thu 09:04:41 PM 33.8683 -111.4178 226° Southwest 336 387 11,900 -1,113 Descending Albuquerque Center
Thu 09:05:43 PM 33.7969 -111.4775 215° Southwest 313 360 10,700 -1,258 Descending Albuquerque Center
Thu 09:06:45 PM 33.7297 -111.5358 216° Southwest 297 342 9,300 -968 Descending Albuquerque Center
Thu 09:07:47 PM 33.6653 -111.5917 216° Southwest 282 325 8,700 -780 Descending Albuquerque Center
Thu 09:08:48 PM 33.6069 -111.6408 215° Southwest 258 297 7,700 -1,073 Descending Albuquerque Center
Thu 09:09:50 PM 33.5492 -111.6883 214° Southwest 252 290 6,500 -1,210 Descending Albuquerque Center
Thu 09:10:52 PM 33.4950 -111.7600 228° Southwest 246 283 5,200 -1,210 Descending Albuquerque Center
Thu 09:11:54 PM 33.4664 -111.8233 242° Southwest 220 253 4,000 -1,024 Descending Albuquerque Center
Thu 09:12:55 PM 33.4453 -111.8733 243° Southwest 175 201 3,100 -914 Descending Albuquerque Center
Thu 09:13:39 PM 33.4333 -111.9000 242° Southwest 141 162 2,400 -808 Descending Phoenix TRACON
Thu 09:14:39 PM 33.4333 -111.9500 270° West 138 159 1,700 -700 Descending Phoenix TRACON

Login

Don't have an account? Register now (free) for customized features, flight alerts, and more!